This is the latest recevied weather packets stored in our database for station/object KQ4WWD. If no packets are shown the sender has not sent any weather packets the latest 10 day(s).
| Time | Temp. | Humidity | Pressure | Rain* | Wind** | Luminosity | Snow |
|---|---|---|---|---|---|---|---|
| 1787852955 | 29.44° C | 79% | 1016.2 hPa | 0 mm | - | 222 W/m² | - |
| 1787852650 | 30° C | 77% | 1016.2 hPa | 0 mm | - | 248 W/m² | - |
| 1787852349 | 30° C | 76% | 1016 hPa | 0 mm | - | 270 W/m² | - |
| 1787852049 | 31.11° C | 74% | 1016.1 hPa | 0 mm | - | 210 W/m² | - |
| 1787851749 | 31.11° C | 73% | 1016.2 hPa | 0 mm | - | 206 W/m² | - |
| 1787851443 | 33.33° C | 72% | 1016.1 hPa | 0 mm | - | 130 W/m² | - |
| 1787851139 | 32.78° C | 73% | 1016.1 hPa | 0 mm | - | 721 W/m² | - |
| 1787850834 | 33.33° C | 71% | 1016.1 hPa | 0 mm | - | 939 W/m² | - |
| 1787850530 | 33.33° C | 70% | 1016 hPa | 0 mm | - | 877 W/m² | - |
| 1787850224 | 31.67° C | 72% | 1016.2 hPa | 0 mm | - | 857 W/m² | - |
| 1787849925 | 31.11° C | 74% | 1016.3 hPa | 0 mm | - | 852 W/m² | - |
| 1787849620 | 30° C | 75% | 1016.3 hPa | 0 mm | - | 843 W/m² | - |
| 1787849319 | 28.89° C | 78% | 1016.6 hPa | 0 mm | - | 795 W/m² | - |
| 1787849019 | 27.78° C | 81% | 1016.6 hPa | 0 mm | - | 395 W/m² | - |
| 1787848713 | 26.67° C | 80% | 1016.6 hPa | 0 mm | - | 385 W/m² | - |
| 1787848408 | 28.33° C | 84% | 1016.4 hPa | 0 mm | - | 233 W/m² | - |
| 1787848108 | 30° C | 83% | 1016.6 hPa | 0 mm | - | 150 W/m² | - |
| 1787847802 | 32.22° C | 73% | 1016.5 hPa | 0 mm | - | 67 W/m² | - |
| 1787847498 | 32.78° C | 73% | 1016.3 hPa | 0 mm | - | 841 W/m² | - |
| 1787847193 | 32.22° C | 73% | 1016.6 hPa | 0 mm | - | 608 W/m² | - |
| 1787846890 | 32.22° C | 73% | 1016.5 hPa | 0 mm | - | 787 W/m² | - |
| 1787846589 | 32.22° C | 74% | 1016.6 hPa | 0 mm | - | 317 W/m² | - |
| 1787846284 | 31.67° C | 74% | 1016.6 hPa | 0 mm | - | 191 W/m² | - |
| 1787845980 | 32.22° C | 73% | 1016.6 hPa | 0 mm | - | 188 W/m² | - |
| 1787845676 | 31.67° C | 75% | 1016.7 hPa | 0 mm | - | 516 W/m² | - |
* Rain latest hour (hover to see other rain measurements)
** Current wind speed in m/s (hover to see current wind gust speed)